Time;durP1;ratioP1;P1;durP2;ratioP2;P2;SDS_P1;SDS_P2;PMS_P1;PMS_P2;Temp;Humidity;BMP_temperature;BMP_pressure;BME280_temperature;BME280_humidity;BME280_pressure;Samples;Min_cycle;Max_cycle;Signal;HPM_P1;HPM_P2
2022/05/17 00:00:38;;;;;;;5.28;2.83;;;13.90;99.90;;;;;;5067939;28;20086;-64
2022/05/17 00:03:03;;;;;;;5.45;2.17;;;14.00;99.90;;;;;;5068478;28;20390;-63
2022/05/17 00:05:30;;;;;;;4.65;2.78;;;14.00;99.90;;;;;;5068952;28;20040;-62
2022/05/17 00:07:55;;;;;;;5.00;2.97;;;14.00;99.90;;;;;;5071490;28;20162;-62
2022/05/17 00:10:24;;;;;;;4.65;2.35;;;14.00;99.90;;;;;;5071375;28;20103;-63
2022/05/17 00:12:56;;;;;;;9.18;4.00;;;14.00;99.90;;;;;;5071269;28;20025;-63
2022/05/17 00:15:22;;;;;;;6.15;2.55;;;14.00;99.90;;;;;;5071253;28;20028;-62
2022/05/17 00:17:50;;;;;;;7.60;3.20;;;14.00;99.90;;;;;;5071512;28;20036;-62
2022/05/17 00:20:16;;;;;;;4.13;2.20;;;14.00;99.90;;;;;;5071218;28;20056;-62
2022/05/17 00:22:42;;;;;;;6.95;3.00;;;14.10;99.90;;;;;;5070739;28;20029;-62
2022/05/17 00:25:09;;;;;;;6.63;3.08;;;14.00;99.90;;;;;;5068029;28;20091;-62
2022/05/17 00:27:34;;;;;;;4.55;2.47;;;13.90;99.90;;;;;;5067689;28;20025;-62
2022/05/17 00:30:01;;;;;;;6.57;2.70;;;13.80;99.90;;;;;;5070380;28;20055;-63
2022/05/17 00:32:26;;;;;;;5.68;2.50;;;13.80;99.90;;;;;;5071172;28;20016;-62
2022/05/17 00:34:52;;;;;;;5.78;3.10;;;13.70;99.90;;;;;;5070884;28;20342;-64
2022/05/17 00:37:18;;;;;;;5.53;2.63;;;13.70;99.90;;;;;;5071090;28;20016;-63
2022/05/17 00:39:43;;;;;;;5.18;2.60;;;13.60;99.90;;;;;;5071063;28;20070;-63
2022/05/17 00:42:09;;;;;;;5.57;2.90;;;13.60;99.90;;;;;;5070510;28;20027;-62
2022/05/17 00:44:44;;;;;;;6.25;3.65;;;13.50;99.90;;;;;;5070480;28;20024;-62
2022/05/17 00:47:34;;;;;;;7.30;3.13;;;13.40;99.90;;;;;;5070811;28;20032;-62
2022/05/17 00:50:03;;;;;;;9.55;3.75;;;13.40;99.90;;;;;;5070615;28;20040;-62
2022/05/17 00:52:33;;;;;;;9.15;4.10;;;13.40;99.90;;;;;;5070407;28;20048;-62
2022/05/17 00:55:06;;;;;;;6.87;2.77;;;13.30;99.90;;;;;;5070624;28;20048;-62
2022/05/17 00:57:39;;;;;;;6.45;3.35;;;13.20;99.90;;;;;;5068988;28;20738;-64
2022/05/17 01:00:11;;;;;;;9.70;3.67;;;13.20;99.90;;;;;;5070210;28;20481;-62
2022/05/17 01:02:36;;;;;;;8.80;4.00;;;13.10;99.90;;;;;;5068247;28;20215;-62
2022/05/17 01:05:04;;;;;;;7.53;3.55;;;13.10;99.90;;;;;;5067301;28;20372;-63
2022/05/17 01:07:39;;;;;;;7.68;4.53;;;13.10;99.90;;;;;;5068853;28;20029;-62
2022/05/17 01:10:05;;;;;;;6.57;3.60;;;13.10;99.90;;;;;;5069928;28;20043;-62
2022/05/17 01:12:34;;;;;;;7.55;3.42;;;13.20;99.90;;;;;;5069815;28;20115;-63
2022/05/17 01:15:01;;;;;;;7.32;3.58;;;13.20;99.90;;;;;;5070106;28;20017;-62
2022/05/17 01:17:32;;;;;;;7.75;2.80;;;13.10;99.90;;;;;;5070718;28;20040;-62
2022/05/17 01:19:59;;;;;;;5.72;2.83;;;13.10;99.90;;;;;;5070220;28;20473;-62
2022/05/17 01:22:25;;;;;;;8.75;3.15;;;13.00;99.90;;;;;;5070059;28;20054;-63
2022/05/17 01:24:51;;;;;;;7.45;3.08;;;13.00;99.90;;;;;;5070032;28;20440;-62
2022/05/17 01:27:33;;;;;;;5.22;2.97;;;12.90;99.90;;;;;;5069849;28;20469;-62
2022/05/17 01:29:59;;;;;;;5.88;3.13;;;12.90;99.90;;;;;;5069946;28;20032;-63
2022/05/17 01:32:25;;;;;;;6.68;2.92;;;12.90;99.90;;;;;;5070036;28;20047;-62
2022/05/17 01:34:51;;;;;;;8.82;3.00;;;12.80;99.90;;;;;;5070241;28;20024;-62
2022/05/17 01:37:17;;;;;;;6.35;3.10;;;12.80;99.90;;;;;;5070064;28;20065;-64
2022/05/17 01:39:44;;;;;;;7.72;3.42;;;12.80;99.90;;;;;;5070075;28;20417;-62
2022/05/17 01:42:11;;;;;;;4.68;3.30;;;12.80;99.90;;;;;;5069797;28;20036;-62
2022/05/17 01:44:38;;;;;;;8.15;3.25;;;12.80;99.90;;;;;;5069882;28;20031;-62
2022/05/17 01:47:04;;;;;;;6.45;3.53;;;12.80;99.90;;;;;;5053966;28;20026;-62
2022/05/17 01:49:30;;;;;;;6.75;2.83;;;12.80;99.90;;;;;;5047232;28;20083;-62
2022/05/17 01:51:55;;;;;;;6.40;3.05;;;12.80;99.90;;;;;;5049296;28;20072;-62
2022/05/17 01:54:21;;;;;;;6.82;3.22;;;12.80;99.90;;;;;;5046506;28;20036;-62
2022/05/17 01:56:47;;;;;;;6.82;3.28;;;12.70;99.90;;;;;;5046189;28;20029;-62
2022/05/17 01:59:12;;;;;;;6.50;2.92;;;12.70;99.90;;;;;;5046522;28;20389;-62
2022/05/17 02:01:39;;;;;;;7.40;2.83;;;12.60;99.90;;;;;;5046847;28;20038;-62
2022/05/17 02:04:05;;;;;;;6.18;3.33;;;12.60;99.90;;;;;;5047106;28;20103;-62
2022/05/17 02:06:31;;;;;;;5.05;2.38;;;12.60;99.90;;;;;;5049541;28;20037;-62
2022/05/17 02:08:56;;;;;;;3.78;2.60;;;12.50;99.90;;;;;;5049528;28;20029;-62
2022/05/17 02:11:22;;;;;;;6.03;3.13;;;12.40;99.90;;;;;;5055986;28;20485;-62
2022/05/17 02:13:47;;;;;;;4.63;2.45;;;12.30;99.90;;;;;;5069529;28;20021;-62
2022/05/17 02:16:13;;;;;;;7.00;2.95;;;12.20;99.90;;;;;;5069462;28;20025;-63
2022/05/17 02:18:39;;;;;;;4.82;2.63;;;12.10;99.90;;;;;;5066448;28;20032;-62
2022/05/17 02:21:05;;;;;;;4.72;2.78;;;12.10;99.90;;;;;;5066456;28;20050;-61
2022/05/17 02:23:31;;;;;;;5.63;2.50;;;12.10;99.90;;;;;;5069595;28;20036;-62
2022/05/17 02:25:57;;;;;;;4.18;2.60;;;12.10;99.90;;;;;;5070165;28;20016;-62
2022/05/17 02:28:23;;;;;;;3.83;2.40;;;12.10;99.90;;;;;;5072954;28;20031;-62
2022/05/17 02:30:49;;;;;;;4.82;2.85;;;12.00;99.90;;;;;;5073129;28;20459;-62
2022/05/17 02:33:16;;;;;;;6.28;2.90;;;12.00;99.90;;;;;;5073496;28;20089;-63
2022/05/17 02:35:43;;;;;;;4.70;2.55;;;12.00;99.90;;;;;;5055135;28;20535;-62
2022/05/17 02:38:09;;;;;;;6.55;3.00;;;11.90;99.90;;;;;;5073208;28;20112;-62
2022/05/17 02:40:36;;;;;;;4.03;2.45;;;11.90;99.90;;;;;;5073065;28;20024;-62
2022/05/17 02:43:03;;;;;;;10.00;3.08;;;11.90;99.90;;;;;;5072906;28;20020;-62
2022/05/17 02:45:29;;;;;;;5.40;2.67;;;11.90;99.90;;;;;;5073009;28;20032;-62
2022/05/17 02:47:54;;;;;;;4.78;2.60;;;11.90;99.90;;;;;;5072884;28;20434;-62
2022/05/17 02:50:21;;;;;;;6.63;2.88;;;11.90;99.90;;;;;;5072774;28;20078;-62
2022/05/17 02:52:46;;;;;;;6.75;2.88;;;11.90;99.90;;;;;;5073304;28;20028;-62
2022/05/17 02:55:12;;;;;;;8.85;3.63;;;11.80;99.90;;;;;;5072869;28;20107;-62
2022/05/17 02:57:38;;;;;;;5.07;3.20;;;11.80;99.90;;;;;;5072899;28;20044;-62
2022/05/17 03:00:07;;;;;;;6.15;2.72;;;11.70;99.90;;;;;;5069279;28;20063;-62
2022/05/17 03:02:33;;;;;;;4.40;2.42;;;11.80;99.90;;;;;;5072643;28;20032;-62
2022/05/17 03:04:59;;;;;;;6.68;2.75;;;11.70;99.90;;;;;;5072734;28;20774;-62
2022/05/17 03:07:25;;;;;;;5.07;2.45;;;11.70;99.90;;;;;;5073020;28;20477;-62
2022/05/17 03:09:50;;;;;;;2.90;2.17;;;11.70;99.90;;;;;;5072716;28;20490;-62
2022/05/17 03:12:16;;;;;;;5.65;3.13;;;11.70;99.90;;;;;;5072370;28;20146;-62
2022/05/17 03:14:42;;;;;;;6.00;3.15;;;11.70;99.90;;;;;;5072885;28;20099;-62
2022/05/17 03:17:13;;;;;;;7.13;3.50;;;11.70;99.90;;;;;;5072422;28;20473;-62
2022/05/17 03:19:40;;;;;;;6.80;3.47;;;11.70;99.90;;;;;;5072692;28;20111;-63
2022/05/17 03:22:06;;;;;;;5.15;2.80;;;11.70;99.90;;;;;;5072686;28;20098;-62
2022/05/17 03:24:32;;;;;;;5.65;1.95;;;11.70;99.90;;;;;;5072393;28;20035;-62
2022/05/17 03:26:58;;;;;;;4.40;2.95;;;11.70;99.90;;;;;;5072137;28;20020;-62
2022/05/17 03:29:24;;;;;;;6.70;3.35;;;11.80;99.90;;;;;;5072224;28;20301;-62
2022/05/17 03:31:51;;;;;;;6.20;2.70;;;11.80;99.90;;;;;;5071919;28;20394;-62
2022/05/17 03:34:17;;;;;;;6.00;3.42;;;11.80;99.90;;;;;;5071301;28;20024;-62
2022/05/17 03:36:42;;;;;;;5.68;3.08;;;11.80;99.90;;;;;;5072051;28;20440;-62
2022/05/17 03:39:09;;;;;;;5.20;2.50;;;11.80;99.90;;;;;;5072055;28;20056;-62
2022/05/17 03:41:34;;;;;;;7.75;2.78;;;11.80;99.90;;;;;;5071692;28;20032;-62
2022/05/17 03:44:00;;;;;;;5.85;3.13;;;11.70;99.90;;;;;;5072221;28;20032;-62
2022/05/17 03:46:26;;;;;;;3.65;2.40;;;11.80;99.90;;;;;;5071650;28;20020;-61
2022/05/17 03:48:51;;;;;;;3.08;2.38;;;11.80;99.90;;;;;;5071884;28;20341;-62
2022/05/17 03:51:19;;;;;;;4.95;2.55;;;11.70;99.90;;;;;;5071589;28;20539;-62
2022/05/17 03:53:47;;;;;;;5.82;2.92;;;11.50;99.90;;;;;;5071604;28;20384;-62
2022/05/17 03:56:12;;;;;;;4.65;2.65;;;11.50;99.90;;;;;;5068270;28;20112;-62
2022/05/17 03:58:38;;;;;;;4.25;2.88;;;11.60;99.90;;;;;;5071733;28;20099;-62
2022/05/17 04:01:05;;;;;;;4.63;2.58;;;11.50;99.90;;;;;;5071505;28;20016;-62
2022/05/17 04:03:31;;;;;;;5.30;2.88;;;11.50;99.90;;;;;;5071966;28;20029;-62
2022/05/17 04:05:57;;;;;;;4.80;2.30;;;11.50;99.90;;;;;;5071704;28;20028;-63
2022/05/17 04:08:23;;;;;;;4.57;2.40;;;11.50;99.90;;;;;;5071467;28;20028;-63
2022/05/17 04:10:49;;;;;;;3.67;1.90;;;11.40;99.90;;;;;;5071242;28;20093;-63
2022/05/17 04:13:15;;;;;;;5.45;2.65;;;11.50;99.90;;;;;;5071171;28;20103;-62
2022/05/17 04:15:41;;;;;;;3.72;2.35;;;11.50;99.90;;;;;;5070246;28;20032;-62
2022/05/17 04:18:08;;;;;;;5.32;2.75;;;11.50;99.90;;;;;;5067963;28;20469;-62
2022/05/17 04:20:34;;;;;;;6.03;2.67;;;11.60;99.90;;;;;;5068590;28;20032;-62
2022/05/17 04:23:00;;;;;;;3.42;2.20;;;11.60;99.90;;;;;;5071303;28;20039;-62
2022/05/17 04:25:26;;;;;;;4.88;2.95;;;11.60;99.90;;;;;;5071265;28;20017;-62
2022/05/17 04:27:52;;;;;;;4.78;2.63;;;11.60;99.90;;;;;;5070717;28;20546;-62
2022/05/17 04:30:19;;;;;;;4.68;2.78;;;11.60;99.90;;;;;;5052122;28;20405;-62
2022/05/17 04:32:46;;;;;;;4.15;2.58;;;11.60;99.90;;;;;;5067905;28;20020;-62
2022/05/17 04:35:13;;;;;;;3.92;2.65;;;11.70;99.90;;;;;;5067955;28;20043;-62
2022/05/17 04:37:39;;;;;;;3.63;2.17;;;11.60;99.90;;;;;;5068526;28;20196;-62
2022/05/17 04:40:08;;;;;;;3.38;2.38;;;11.60;99.90;;;;;;5052835;28;20078;-62
2022/05/17 04:42:39;;;;;;;5.18;3.15;;;11.60;99.90;;;;;;5052675;28;20363;-62
2022/05/17 04:45:06;;;;;;;7.28;3.00;;;11.60;99.90;;;;;;5068829;28;20020;-62
2022/05/17 04:47:32;;;;;;;5.88;2.35;;;11.70;99.90;;;;;;5067504;28;20037;-62
2022/05/17 04:49:58;;;;;;;5.32;2.92;;;11.70;99.90;;;;;;5067496;28;20029;-62
2022/05/17 04:52:24;;;;;;;5.15;2.85;;;11.80;99.90;;;;;;5067353;28;20143;-62
2022/05/17 04:54:50;;;;;;;2.90;1.95;;;11.90;99.90;;;;;;5068761;28;20040;-62
2022/05/17 04:57:16;;;;;;;2.58;1.92;;;11.90;99.90;;;;;;5069038;28;20357;-62
2022/05/17 04:59:42;;;;;;;6.25;2.42;;;11.90;99.90;;;;;;5069291;28;20073;-62
2022/05/17 05:02:08;;;;;;;4.13;2.30;;;11.90;99.90;;;;;;5067056;28;20424;-62
2022/05/17 05:04:34;;;;;;;4.63;2.42;;;11.80;99.90;;;;;;5067390;28;20542;-62
2022/05/17 05:07:00;;;;;;;2.40;1.83;;;11.80;99.90;;;;;;5067294;28;20076;-62
2022/05/17 05:09:26;;;;;;;2.58;1.27;;;11.70;99.90;;;;;;5066855;28;20464;-63
2022/05/17 05:11:52;;;;;;;2.45;1.40;;;11.60;99.90;;;;;;5068529;28;20025;-63
2022/05/17 05:14:18;;;;;;;2.35;1.60;;;11.60;99.90;;;;;;5070304;28;20039;-62
2022/05/17 05:16:44;;;;;;;2.08;1.52;;;11.50;99.90;;;;;;5068248;28;20099;-63
2022/05/17 05:19:09;;;;;;;2.85;1.73;;;11.50;99.90;;;;;;5067076;28;20089;-62
2022/05/17 05:21:35;;;;;;;4.45;2.38;;;11.60;99.90;;;;;;5068144;28;20089;-62
2022/05/17 05:24:04;;;;;;;3.75;2.20;;;11.70;99.90;;;;;;5070294;28;20503;-62
2022/05/17 05:26:30;;;;;;;4.38;2.80;;;11.80;99.90;;;;;;5069751;28;20040;-62
2022/05/17 05:28:56;;;;;;;4.47;2.00;;;11.90;99.90;;;;;;5069989;28;20036;-62
2022/05/17 05:31:22;;;;;;;4.18;2.40;;;12.00;99.90;;;;;;5069768;28;20400;-62
2022/05/17 05:33:47;;;;;;;5.28;3.25;;;12.10;99.90;;;;;;5069225;28;20079;-62
2022/05/17 05:36:13;;;;;;;4.25;2.50;;;12.30;99.90;;;;;;5066665;28;20097;-62
2022/05/17 05:38:39;;;;;;;6.30;3.08;;;12.40;99.90;;;;;;5066766;28;20050;-62
2022/05/17 05:41:04;;;;;;;5.15;2.45;;;12.50;99.90;;;;;;5068142;28;20047;-62
2022/05/17 05:43:30;;;;;;;4.25;2.25;;;12.50;99.90;;;;;;5066535;28;20448;-63
2022/05/17 05:45:56;;;;;;;3.40;2.28;;;12.50;99.90;;;;;;5066525;28;20078;-62
2022/05/17 05:48:21;;;;;;;4.22;2.83;;;12.50;99.90;;;;;;5066907;28;20056;-62
2022/05/17 05:50:47;;;;;;;4.57;2.53;;;12.50;99.90;;;;;;5068509;28;20063;-63
2022/05/17 05:53:14;;;;;;;5.10;2.85;;;12.40;99.90;;;;;;5066443;28;20028;-63
2022/05/17 05:55:40;;;;;;;3.95;2.70;;;12.50;99.90;;;;;;5066724;28;20489;-62
2022/05/17 05:58:06;;;;;;;6.43;2.50;;;12.50;99.90;;;;;;5074389;28;20035;-63
2022/05/17 06:00:33;;;;;;;6.32;2.90;;;12.50;99.90;;;;;;5076103;28;20116;-62
2022/05/17 06:02:59;;;;;;;4.88;2.30;;;12.50;99.90;;;;;;5076366;28;20024;-63
2022/05/17 06:05:26;;;;;;;4.85;2.78;;;12.50;99.90;;;;;;5070930;28;20025;-62
2022/05/17 06:07:52;;;;;;;4.85;2.97;;;12.50;99.90;;;;;;5072665;28;20417;-63
2022/05/17 06:10:20;;;;;;;7.03;3.80;;;12.60;99.90;;;;;;5074163;28;20548;-63
2022/05/17 06:12:46;;;;;;;3.97;2.55;;;12.70;99.90;;;;;;5057834;28;20054;-62
2022/05/17 06:15:11;;;;;;;8.50;4.07;;;12.90;99.90;;;;;;5075938;28;20051;-62
2022/05/17 06:17:38;;;;;;;5.05;3.28;;;13.10;99.90;;;;;;5076304;28;20477;-62
2022/05/17 06:20:06;;;;;;;7.07;3.13;;;13.30;99.90;;;;;;5076038;28;20070;-62
2022/05/17 06:22:32;;;;;;;6.47;4.03;;;13.60;99.90;;;;;;5075969;28;20074;-62
2022/05/17 06:24:58;;;;;;;4.72;3.08;;;13.80;99.90;;;;;;5072426;28;20108;-62
2022/05/17 06:27:24;;;;;;;7.80;2.92;;;14.00;99.90;;;;;;5072570;28;20107;-63
2022/05/17 06:29:49;;;;;;;4.20;2.47;;;14.20;99.90;;;;;;5074210;28;20032;-62
2022/05/17 06:32:16;;;;;;;4.20;2.70;;;14.40;99.90;;;;;;5075631;28;20027;-62
2022/05/17 06:34:42;;;;;;;5.63;3.10;;;14.60;99.90;;;;;;5075851;28;20028;-63
2022/05/17 06:37:09;;;;;;;3.25;2.33;;;14.80;99.90;;;;;;5073100;28;20508;-63
2022/05/17 06:39:35;;;;;;;6.95;3.55;;;15.10;99.90;;;;;;5072210;28;20043;-63
2022/05/17 06:42:01;;;;;;;6.38;3.60;;;15.30;99.90;;;;;;5074826;28;20079;-63
2022/05/17 06:44:28;;;;;;;7.35;3.00;;;15.50;99.90;;;;;;5075496;28;20035;-62
2022/05/17 06:46:54;;;;;;;7.35;3.33;;;15.50;99.90;;;;;;5075638;28;20219;-62
2022/05/17 06:49:21;;;;;;;4.55;2.97;;;15.70;99.90;;;;;;5074537;28;20489;-62
2022/05/17 06:51:48;;;;;;;8.18;3.60;;;15.90;99.90;;;;;;5073272;28;20048;-62
2022/05/17 06:54:14;;;;;;;5.40;2.97;;;16.00;99.90;;;;;;5075435;28;20031;-62
2022/05/17 06:56:40;;;;;;;6.32;2.97;;;16.10;99.90;;;;;;5075436;28;20111;-62
2022/05/17 06:59:06;;;;;;;5.68;3.35;;;16.20;99.90;;;;;;5075573;28;20020;-62
2022/05/17 07:01:32;;;;;;;5.38;3.33;;;16.30;99.90;;;;;;5073641;28;20446;-62
2022/05/17 07:03:58;;;;;;;6.53;3.65;;;16.50;99.90;;;;;;5072146;28;20024;-63
2022/05/17 07:06:23;;;;;;;6.00;3.30;;;16.70;99.90;;;;;;5072327;28;20223;-63
2022/05/17 07:08:49;;;;;;;5.68;3.40;;;16.90;99.90;;;;;;5073750;28;20025;-62
2022/05/17 07:13:59;;;;;;;6.15;3.88;;;17.30;99.90;;;;;;5071765;28;20043;-62
2022/05/17 07:16:25;;;;;;;5.47;3.47;;;17.50;99.90;;;;;;5072094;28;20112;-63
2022/05/17 07:18:51;;;;;;;6.88;4.28;;;17.50;99.90;;;;;;5072394;28;20016;-62
2022/05/17 07:21:16;;;;;;;5.03;3.25;;;17.50;99.90;;;;;;5072229;28;20104;-63
2022/05/17 07:23:43;;;;;;;5.93;3.75;;;17.90;99.90;;;;;;5072289;28;20107;-62
2022/05/17 07:26:10;;;;;;;8.40;3.88;;;18.20;99.90;;;;;;5072236;28;20020;-61
2022/05/17 07:28:47;;;;;;;5.47;2.63;;;18.50;99.90;;;;;;5071936;28;20389;-62
2022/05/17 07:31:13;;;;;;;3.22;2.60;;;18.80;99.90;;;;;;5071930;28;20120;-63
2022/05/17 07:33:40;;;;;;;7.68;2.92;;;19.40;99.90;;;;;;5072141;28;20108;-63
2022/05/17 07:36:07;;;;;;;4.05;2.28;;;19.90;99.90;;;;;;5072233;28;20031;-63
2022/05/17 07:38:34;;;;;;;5.38;2.38;;;20.80;99.90;;;;;;5071967;28;20036;-63
2022/05/17 07:41:01;;;;;;;3.20;2.47;;;21.30;99.90;;;;;;5071792;28;20023;-64
2022/05/17 07:43:26;;;;;;;4.68;2.28;;;21.70;99.90;;;;;;5071752;28;20032;-63
2022/05/17 07:45:52;;;;;;;3.53;1.98;;;22.00;99.90;;;;;;5071552;28;20051;-64
2022/05/17 07:48:19;;;;;;;3.10;1.65;;;22.60;99.90;;;;;;5071951;28;20058;-64
2022/05/17 07:50:45;;;;;;;2.97;1.63;;;23.20;99.90;;;;;;5071200;28;20150;-64
2022/05/17 07:53:14;;;;;;;4.05;1.75;;;23.60;99.90;;;;;;5071738;28;20401;-64
2022/05/17 07:55:41;;;;;;;3.20;2.00;;;23.80;99.90;;;;;;5072282;28;20076;-64
2022/05/17 07:58:07;;;;;;;2.20;1.38;;;24.40;99.90;;;;;;5071438;28;20021;-64
2022/05/17 08:00:34;;;;;;;2.20;1.80;;;24.90;98.60;;;;;;5070904;28;20032;-64
2022/05/17 08:03:00;;;;;;;2.25;1.70;;;24.80;98.80;;;;;;5068509;28;20077;-64
2022/05/17 08:05:27;;;;;;;2.47;1.38;;;24.90;97.70;;;;;;5068322;28;20020;-64
2022/05/17 08:07:53;;;;;;;2.25;1.38;;;23.90;99.40;;;;;;5071505;28;20451;-64
2022/05/17 08:10:20;;;;;;;3.20;1.50;;;24.30;99.70;;;;;;5070685;28;20525;-64
2022/05/17 08:12:46;;;;;;;3.70;1.48;;;24.50;98.90;;;;;;5054317;28;20025;-64
2022/05/17 08:15:12;;;;;;;1.73;1.30;;;25.20;97.30;;;;;;5051680;28;20505;-63
2022/05/17 08:17:39;;;;;;;1.63;0.98;;;24.60;96.80;;;;;;5051386;28;20025;-64
2022/05/17 08:20:12;;;;;;;2.95;1.02;;;24.40;97.20;;;;;;5050905;28;20064;-63
2022/05/17 08:22:39;;;;;;;2.17;1.08;;;25.20;98.00;;;;;;5050869;28;20031;-63
2022/05/17 08:27:49;;;;;;;1.77;0.85;;;24.40;96.60;;;;;;5050825;28;20149;-63
2022/05/17 08:30:19;;;;;;;2.30;1.42;;;24.60;97.80;;;;;;5056142;28;20503;-63
2022/05/17 08:35:53;;;;;;;1.10;0.87;;;26.90;94.00;;;;;;5066735;28;20048;-62
2022/05/17 08:38:25;;;;;;;1.73;0.93;;;26.80;92.60;;;;;;5050786;28;20312;-61
2022/05/17 08:40:59;;;;;;;4.72;0.82;;;27.10;93.00;;;;;;5053184;28;20057;-62
2022/05/17 08:43:39;;;;;;;1.30;0.73;;;28.10;91.20;;;;;;5070808;28;20409;-63
2022/05/17 08:46:34;;;;;;;1.95;0.75;;;28.10;88.70;;;;;;5069355;28;20031;-63
2022/05/17 08:49:16;;;;;;;1.20;0.90;;;28.50;90.10;;;;;;5049837;28;20127;-64
2022/05/17 08:51:48;;;;;;;1.75;0.90;;;28.20;88.30;;;;;;5068997;28;20489;-62
2022/05/17 08:54:17;;;;;;;2.08;1.02;;;27.30;87.60;;;;;;5067262;28;20473;-62
2022/05/17 08:57:16;;;;;;;1.93;1.10;;;28.40;89.40;;;;;;5070489;28;20020;-62
2022/05/17 08:59:42;;;;;;;1.10;1.00;;;28.90;85.40;;;;;;5045224;28;20032;-63
2022/05/17 09:02:15;;;;;;;2.08;1.00;;;29.80;83.10;;;;;;5070270;28;20385;-63
2022/05/17 09:04:59;;;;;;;1.90;1.30;;;29.70;76.80;;;;;;5070469;28;20106;-63
2022/05/17 09:07:28;;;;;;;1.80;1.00;;;27.70;81.80;;;;;;5070624;28;20103;-63
2022/05/17 09:10:04;;;;;;;2.47;0.90;;;27.50;88.30;;;;;;5070343;28;20033;-63
2022/05/17 09:12:32;;;;;;;1.25;1.00;;;28.20;86.40;;;;;;5069189;28;20028;-63
2022/05/17 09:15:00;;;;;;;3.50;1.13;;;29.20;83.80;;;;;;5067279;28;20041;-63
2022/05/17 09:17:28;;;;;;;3.85;1.20;;;29.90;81.20;;;;;;5067028;28;20105;-63
2022/05/17 09:19:54;;;;;;;2.78;1.42;;;30.80;77.60;;;;;;5067555;28;20160;-63
2022/05/17 09:22:20;;;;;;;1.95;1.15;;;31.80;72.40;;;;;;5070352;28;20021;-62
2022/05/17 09:24:59;;;;;;;3.10;1.40;;;32.40;69.90;;;;;;5067216;28;20028;-63
2022/05/17 09:27:37;;;;;;;2.00;1.05;;;32.40;65.50;;;;;;5067265;28;20101;-64
2022/05/17 09:30:31;;;;;;;2.85;1.20;;;32.30;64.10;;;;;;5066723;28;20048;-63
2022/05/17 09:33:04;;;;;;;2.58;1.40;;;33.50;58.20;;;;;;5053644;28;20098;-65
2022/05/17 09:35:31;;;;;;;2.25;1.23;;;33.40;58.40;;;;;;5065219;28;20035;-63
2022/05/17 09:37:59;;;;;;;1.85;1.10;;;33.70;56.40;;;;;;5066911;28;20028;-63
2022/05/17 09:40:31;;;;;;;2.30;1.38;;;33.90;53.10;;;;;;5066745;28;20040;-64
2022/05/17 09:42:56;;;;;;;2.17;1.25;;;34.30;50.00;;;;;;5069658;28;20056;-66
2022/05/17 09:45:42;;;;;;;2.30;1.00;;;35.00;50.90;;;;;;5069790;28;20342;-64
2022/05/17 09:48:10;;;;;;;2.70;1.20;;;34.30;45.90;;;;;;5069495;28;20021;-65
2022/05/17 09:53:47;;;;;;;2.35;1.23;;;34.00;48.20;;;;;;5050009;28;20047;-64
2022/05/17 09:56:16;;;;;;;3.53;1.27;;;32.90;48.40;;;;;;5049416;28;20047;-65
2022/05/17 09:58:43;;;;;;;2.53;1.30;;;34.30;49.00;;;;;;5049651;28;20024;-65
2022/05/17 10:01:20;;;;;;;2.65;0.80;;;35.50;43.60;;;;;;5049493;28;20066;-65
2022/05/17 10:04:05;;;;;;;3.58;1.40;;;36.20;40.40;;;;;;5049729;28;20029;-64
2022/05/17 10:06:46;;;;;;;2.58;1.10;;;36.50;36.30;;;;;;5052043;28;20017;-64
2022/05/17 10:09:28;;;;;;;2.38;1.08;;;35.40;37.40;;;;;;5049407;28;20021;-64
2022/05/17 10:12:00;;;;;;;1.55;1.20;;;36.60;37.80;;;;;;5060165;28;20490;-65
2022/05/17 10:14:33;;;;;;;1.45;1.25;;;37.10;33.90;;;;;;5069488;28;20173;-65
2022/05/17 10:17:01;;;;;;;3.88;1.27;;;37.80;33.00;;;;;;5069491;28;20112;-64
2022/05/17 10:19:43;;;;;;;2.20;1.25;;;38.20;30.00;;;;;;5068104;28;20029;-64
2022/05/17 10:22:12;;;;;;;4.13;1.20;;;38.40;30.70;;;;;;5066177;28;20108;-64
2022/05/17 10:24:41;;;;;;;3.25;1.65;;;38.70;29.70;;;;;;5066547;28;20032;-64
2022/05/17 10:27:33;;;;;;;1.10;1.00;;;38.50;28.20;;;;;;5066087;28;20468;-64
2022/05/17 10:30:20;;;;;;;3.55;1.20;;;38.60;27.60;;;;;;5069401;28;20090;-64
2022/05/17 10:33:00;;;;;;;3.70;1.30;;;40.10;27.50;;;;;;5066422;28;20056;-65
2022/05/17 10:35:47;;;;;;;2.20;1.13;;;38.90;26.00;;;;;;5066122;28;20115;-64
2022/05/17 10:38:20;;;;;;;5.40;1.30;;;39.50;26.70;;;;;;5068684;28;20036;-64
2022/05/17 10:40:51;;;;;;;1.48;0.80;;;39.00;25.90;;;;;;5069592;28;20031;-64
2022/05/17 10:43:20;;;;;;;2.00;0.90;;;38.20;26.50;;;;;;5070630;28;20218;-64
2022/05/17 10:45:55;;;;;;;2.58;1.40;;;39.20;26.40;;;;;;5070027;28;20036;-64
2022/05/17 10:48:39;;;;;;;1.20;1.00;;;39.70;26.60;;;;;;5069990;28;20396;-64
2022/05/17 10:51:33;;;;;;;1.20;1.10;;;39.10;24.20;;;;;;5069447;28;20044;-64
2022/05/17 10:54:37;;;;;;;1.40;0.75;;;39.80;24.20;;;;;;5073175;28;20041;-64
2022/05/17 10:57:38;;;;;;;5.22;1.15;;;40.10;23.00;;;;;;5071288;28;20360;-64
2022/05/17 11:00:14;;;;;;;1.95;1.00;;;40.30;20.10;;;;;;5072900;28;20111;-66
2022/05/17 11:02:39;;;;;;;4.82;1.35;;;39.20;21.10;;;;;;5072802;28;20052;-65
2022/05/17 11:05:24;;;;;;;3.40;0.93;;;41.60;20.40;;;;;;5071639;28;20461;-65
2022/05/17 11:08:08;;;;;;;2.33;0.80;;;40.80;19.60;;;;;;5072605;28;20103;-65
2022/05/17 11:10:41;;;;;;;1.20;1.00;;;41.90;19.00;;;;;;5072394;28;20037;-65
2022/05/17 11:13:36;;;;;;;1.48;0.70;;;41.50;18.40;;;;;;5072632;28;20024;-65
2022/05/17 11:16:12;;;;;;;2.85;1.40;;;40.00;18.20;;;;;;5063989;28;20043;-65
2022/05/17 11:18:47;;;;;;;2.25;0.93;;;39.90;19.20;;;;;;5072622;28;20078;-65
2022/05/17 11:21:26;;;;;;;2.80;0.85;;;40.30;19.30;;;;;;5070085;28;20396;-65
2022/05/17 11:24:06;;;;;;;2.63;0.98;;;41.40;16.90;;;;;;5069187;28;20028;-65
2022/05/17 11:27:03;;;;;;;2.05;0.90;;;41.30;17.10;;;;;;5068607;28;20102;-65
2022/05/17 11:29:29;;;;;;;1.90;0.70;;;41.70;17.60;;;;;;5071605;28;20025;-64
2022/05/17 11:32:15;;;;;;;2.92;0.90;;;41.90;16.60;;;;;;5072090;28;20029;-65
2022/05/17 11:34:43;;;;;;;1.50;1.00;;;41.10;16.70;;;;;;5061249;28;20052;-65
2022/05/17 11:37:38;;;;;;;1.00;0.90;;;42.10;17.20;;;;;;5072093;28;20100;-65
2022/05/17 11:40:08;;;;;;;1.63;0.63;;;39.20;14.90;;;;;;5071842;28;20436;-64
2022/05/17 11:42:35;;;;;;;1.73;0.80;;;39.90;16.90;;;;;;5071690;28;20452;-65
2022/05/17 11:45:19;;;;;;;1.42;0.88;;;40.10;18.00;;;;;;5071955;28;20064;-65
2022/05/17 11:47:54;;;;;;;1.85;0.60;;;40.00;16.30;;;;;;5071424;28;20033;-65
2022/05/17 11:50:42;;;;;;;1.30;0.70;;;39.90;16.00;;;;;;5068354;28;20071;-64
2022/05/17 11:53:23;;;;;;;1.45;0.70;;;40.50;15.20;;;;;;5068972;28;20047;-65
2022/05/17 11:56:14;;;;;;;1.17;0.60;;;41.30;13.90;;;;;;5070916;28;20025;-65
2022/05/17 11:58:46;;;;;;;0.82;0.68;;;41.60;14.30;;;;;;5043941;28;20039;-65
2022/05/17 12:01:29;;;;;;;0.60;0.40;;;39.90;13.50;;;;;;5071651;28;20020;-65
2022/05/17 12:04:00;;;;;;;2.50;0.63;;;39.60;14.00;;;;;;5071516;28;20485;-65
2022/05/17 12:06:30;;;;;;;0.60;0.50;;;39.60;14.30;;;;;;5071207;28;20043;-65
2022/05/17 12:08:56;;;;;;;4.38;0.80;;;40.20;13.50;;;;;;5071380;28;20028;-65
2022/05/17 12:11:30;;;;;;;1.77;0.90;;;40.30;14.20;;;;;;5071071;28;20040;-65
2022/05/17 12:14:39;;;;;;;1.65;0.50;;;39.90;13.70;;;;;;5071242;28;20110;-65
2022/05/17 12:17:19;;;;;;;2.95;0.88;;;40.10;13.50;;;;;;5009891;28;20049;-65
2022/05/17 12:20:10;;;;;;;0.88;0.50;;;40.40;12.80;;;;;;5051389;28;20025;-63
2022/05/17 12:23:17;;;;;;;2.28;0.80;;;39.30;12.40;;;;;;5050996;28;20056;-63
2022/05/17 12:26:02;;;;;;;1.40;0.60;;;38.50;12.90;;;;;;5031185;28;20037;-63
2022/05/17 12:28:42;;;;;;;2.13;0.80;;;39.50;13.20;;;;;;5049118;28;20028;-65
2022/05/17 12:31:10;;;;;;;1.02;0.47;;;38.70;13.60;;;;;;5050968;28;20040;-64
2022/05/17 12:33:45;;;;;;;1.58;0.70;;;38.50;12.70;;;;;;5050841;28;20507;-64
2022/05/17 12:36:30;;;;;;;1.65;0.68;;;38.30;12.30;;;;;;5051236;28;20037;-65
2022/05/17 12:44:48;;;;;;;0.90;0.60;;;38.60;13.80;;;;;;5070859;28;20028;-65
2022/05/17 12:47:30;;;;;;;2.10;0.93;;;36.90;13.40;;;;;;5070549;28;20090;-65
2022/05/17 12:49:57;;;;;;;2.35;0.70;;;36.40;13.80;;;;;;5070629;28;20792;-65
2022/05/17 12:52:37;;;;;;;0.98;0.55;;;37.00;14.90;;;;;;5070454;28;20443;-64
2022/05/17 12:55:23;;;;;;;0.68;0.63;;;36.40;14.70;;;;;;5070844;28;20032;-63
2022/05/17 12:57:49;;;;;;;3.65;0.85;;;36.50;15.00;;;;;;5070058;28;20024;-63
2022/05/17 13:00:26;;;;;;;0.88;0.73;;;37.00;15.40;;;;;;5067494;28;20025;-63
2022/05/17 13:02:57;;;;;;;3.55;0.60;;;37.70;15.10;;;;;;5070452;28;20027;-65
2022/05/17 13:05:25;;;;;;;2.40;0.75;;;36.90;12.70;;;;;;5070641;28;20021;-65
2022/05/17 13:08:03;;;;;;;1.67;0.73;;;35.50;14.50;;;;;;5069172;28;20123;-65
2022/05/17 13:10:29;;;;;;;1.98;0.82;;;35.50;14.50;;;;;;5066685;28;20040;-66
2022/05/17 13:12:54;;;;;;;2.63;0.70;;;34.30;15.10;;;;;;5067689;28;20054;-66
2022/05/17 13:15:21;;;;;;;2.67;1.00;;;34.00;16.00;;;;;;5069335;28;20448;-66
2022/05/17 13:17:56;;;;;;;1.80;0.82;;;33.60;17.30;;;;;;5066696;28;20051;-65
2022/05/17 13:20:30;;;;;;;1.42;0.80;;;32.90;18.00;;;;;;5067265;28;20031;-65